createdAt,value
2022-10-01T00:01:21.000Z,7.55
2022-10-01T00:03:51.299Z,9.95
2022-10-01T00:06:22.270Z,8.73
2022-10-01T00:08:51.910Z,9.45
2022-10-01T00:11:22.543Z,10.38
2022-10-01T00:13:52.099Z,13.73
2022-10-01T00:16:23.495Z,8.43
2022-10-01T00:18:54.625Z,9.88
2022-10-01T00:21:25.847Z,8.68
2022-10-01T00:23:56.455Z,7.63
2022-10-01T00:26:28.427Z,8.63
2022-10-01T00:28:58.286Z,8.48
2022-10-01T00:31:27.695Z,8.63
2022-10-01T00:33:59.478Z,8.60
2022-10-01T00:36:28.586Z,8.43
2022-10-01T00:39:00.308Z,10.80
2022-10-01T00:41:30.656Z,8.80
2022-10-01T00:44:01.489Z,8.25
2022-10-01T00:46:40.725Z,9.88
2022-10-01T00:49:16.140Z,13.23
2022-10-01T00:51:48.008Z,11.63
2022-10-01T00:54:20.823Z,9.40
2022-10-01T00:56:54.094Z,9.32
2022-10-01T00:59:22.987Z,11.23
2022-10-01T01:01:51.661Z,9.23
2022-10-01T01:04:22.534Z,11.25
2022-10-01T01:06:57.986Z,11.43
2022-10-01T01:09:31.698Z,9.95
2022-10-01T01:12:11.196Z,10.07
2022-10-01T01:14:47.605Z,8.07
2022-10-01T01:17:23.275Z,9.32
2022-10-01T01:20:08.058Z,8.57
2022-10-01T01:22:44.555Z,9.10
2022-10-01T01:25:19.131Z,7.85
2022-10-01T01:28:02.316Z,7.38
2022-10-01T01:30:34.544Z,8.48
2022-10-01T01:33:08.166Z,7.80
2022-10-01T01:35:44.762Z,7.78
2022-10-01T01:38:18.923Z,10.10
2022-10-01T01:40:51.424Z,7.80
2022-10-01T01:43:25.833Z,7.60
2022-10-01T01:45:55.981Z,7.65
2022-10-01T01:48:25.510Z,10.48
2022-10-01T01:51:12.592Z,9.50
2022-10-01T01:53:41.868Z,14.00
2022-10-01T01:56:11.100Z,10.30
2022-10-01T01:58:41.197Z,10.10
2022-10-01T02:01:35.357Z,9.82
2022-10-01T02:04:07.712Z,9.45
2022-10-01T02:06:50.517Z,12.52
2022-10-01T02:09:28.109Z,9.30
2022-10-01T02:12:12.601Z,11.68
2022-10-01T02:14:54.021Z,11.32
2022-10-01T02:17:30.893Z,13.38
2022-10-01T02:20:03.902Z,8.20
2022-10-01T02:22:41.071Z,10.15
2022-10-01T02:25:12.379Z,9.10
2022-10-01T02:27:46.029Z,9.38
2022-10-01T02:30:16.412Z,11.65
2022-10-01T02:32:47.953Z,7.90
2022-10-01T02:35:19.346Z,8.07
2022-10-01T02:37:51.843Z,7.78
2022-10-01T02:40:27.263Z,8.93
2022-10-01T02:42:59.179Z,8.75
2022-10-01T02:45:32.947Z,10.48
2022-10-01T02:48:05.759Z,7.90
2022-10-01T02:50:39.922Z,8.90
2022-10-01T02:53:15.647Z,9.75
2022-10-01T02:55:45.985Z,9.23
2022-10-01T02:58:14.371Z,7.75
2022-10-01T03:00:44.587Z,12.35
2022-10-01T03:03:13.049Z,8.73
2022-10-01T03:05:41.965Z,9.15
2022-10-01T03:08:10.390Z,13.55
2022-10-01T03:10:41.494Z,11.25
2022-10-01T03:13:13.993Z,12.52
2022-10-01T03:15:46.997Z,11.02
2022-10-01T03:18:16.149Z,9.57
2022-10-01T03:20:44.952Z,9.80
2022-10-01T03:23:13.306Z,11.05
2022-10-01T03:25:41.944Z,12.13
2022-10-01T03:28:10.848Z,12.02
2022-10-01T03:30:39.571Z,12.00
2022-10-01T03:33:09.392Z,14.25
2022-10-01T03:35:38.731Z,15.15
2022-10-01T03:38:08.239Z,14.50
2022-10-01T03:40:39.386Z,16.20
2022-10-01T03:43:07.765Z,20.95
2022-10-01T03:45:36.613Z,21.08
2022-10-01T03:48:05.524Z,17.33
2022-10-01T03:50:36.723Z,41.70
2022-10-01T03:53:06.467Z,97.32
2022-10-01T03:55:35.457Z,95.03
2022-10-01T03:58:04.104Z,125.75
2022-10-01T04:00:32.595Z,130.65
2022-10-01T04:03:01.115Z,18.17
2022-10-01T04:05:30.043Z,89.15
2022-10-01T04:08:00.976Z,53.78
2022-10-01T04:10:30.140Z,40.45
2022-10-01T04:12:59.084Z,35.63
2022-10-01T04:15:28.282Z,84.82
2022-10-01T04:17:58.451Z,61.67
2022-10-01T04:20:27.173Z,54.72
2022-10-01T04:22:56.615Z,105.53
2022-10-01T04:25:26.979Z,59.85
2022-10-01T04:27:58.808Z,85.95
2022-10-01T04:30:29.571Z,31.55
2022-10-01T04:32:58.284Z,234.10
2022-10-01T04:35:28.770Z,215.55
2022-10-01T04:37:58.397Z,226.75
2022-10-01T04:40:29.291Z,270.95
2022-10-01T04:42:57.933Z,80.30
2022-10-01T04:45:27.144Z,139.13
2022-10-01T04:47:57.553Z,145.13
2022-10-01T04:50:28.276Z,100.55
2022-10-01T04:52:57.142Z,115.40
2022-10-01T04:55:26.396Z,98.32
2022-10-01T04:57:56.260Z,25.40
2022-10-01T05:00:26.962Z,20.85
2022-10-01T05:02:55.799Z,26.35
2022-10-01T05:05:28.137Z,52.53
2022-10-01T05:07:57.422Z,52.05
2022-10-01T05:10:26.277Z,36.67
2022-10-01T05:12:57.338Z,25.38
2022-10-01T05:15:26.203Z,37.40
2022-10-01T05:17:54.738Z,32.92
2022-10-01T05:20:26.387Z,33.72
2022-10-01T05:22:56.800Z,24.97
2022-10-01T05:25:25.329Z,37.20
2022-10-01T05:27:54.256Z,37.25
2022-10-01T05:30:25.284Z,37.80
2022-10-01T05:32:59.264Z,27.00
2022-10-01T05:35:28.388Z,28.98
2022-10-01T05:37:58.413Z,27.88
2022-10-01T05:40:28.636Z,27.13
2022-10-01T05:42:58.417Z,27.73
2022-10-01T05:45:30.618Z,25.60
2022-10-01T05:48:01.092Z,25.30
2022-10-01T05:50:31.529Z,23.17
2022-10-01T05:53:02.096Z,30.35
2022-10-01T05:55:33.460Z,21.33
2022-10-01T05:58:03.924Z,18.23
2022-10-01T06:00:35.935Z,20.00
2022-10-01T06:03:06.062Z,23.55
2022-10-01T06:05:36.563Z,21.17
2022-10-01T06:08:06.845Z,27.38
2022-10-01T06:10:37.229Z,25.42
2022-10-01T06:13:06.656Z,25.58
2022-10-01T06:15:38.934Z,22.73
2022-10-01T06:18:09.726Z,22.33
2022-10-01T06:20:39.063Z,23.85
2022-10-01T06:23:12.268Z,21.00
2022-10-01T06:25:41.792Z,23.67
2022-10-01T06:28:12.169Z,21.25
2022-10-01T06:30:42.302Z,21.90
2022-10-01T06:33:13.143Z,24.45
2022-10-01T06:35:43.267Z,18.15
2022-10-01T06:38:12.429Z,20.77
2022-10-01T06:40:42.056Z,18.30
2022-10-01T06:43:12.045Z,17.38
2022-10-01T06:45:43.340Z,17.73
2022-10-01T06:48:15.960Z,17.10
2022-10-01T06:50:46.124Z,15.60
2022-10-01T06:53:16.275Z,15.02
2022-10-01T06:55:46.688Z,18.25
2022-10-01T06:58:17.479Z,16.70
2022-10-01T07:00:49.223Z,16.02
2022-10-01T07:03:20.326Z,15.02
2022-10-01T07:05:50.038Z,16.95
2022-10-01T07:08:19.222Z,15.57
2022-10-01T07:10:48.579Z,15.23
2022-10-01T07:13:20.394Z,16.15
2022-10-01T07:15:51.201Z,15.75
2022-10-01T07:18:19.704Z,13.45
2022-10-01T07:20:48.789Z,16.08
2022-10-01T07:23:18.079Z,13.52
2022-10-01T07:25:46.886Z,13.50
2022-10-01T07:28:18.753Z,15.80
2022-10-01T07:30:49.322Z,12.75
2022-10-01T07:33:20.863Z,13.00
2022-10-01T07:35:49.911Z,13.50
2022-10-01T07:38:18.510Z,14.13
2022-10-01T07:40:53.075Z,14.90
2022-10-01T07:43:21.665Z,13.68
2022-10-01T07:45:52.865Z,12.68
2022-10-01T07:48:23.177Z,13.27
2022-10-01T07:50:52.447Z,14.00
2022-10-01T07:53:21.463Z,15.88
2022-10-01T07:55:50.493Z,12.50
2022-10-01T07:58:22.012Z,12.00
2022-10-01T08:00:57.257Z,12.23
2022-10-01T08:03:27.262Z,13.70
2022-10-01T08:05:57.168Z,13.13
2022-10-01T08:08:26.086Z,11.15
2022-10-01T08:10:54.931Z,12.13
2022-10-01T08:13:25.154Z,12.23
2022-10-01T08:15:54.929Z,12.88
2022-10-01T08:18:24.727Z,12.00
2022-10-01T08:20:55.002Z,14.13
2022-10-01T08:23:24.237Z,11.90
2022-10-01T08:25:52.887Z,12.75
2022-10-01T08:28:21.535Z,12.55
2022-10-01T08:30:50.091Z,10.27
2022-10-01T08:33:18.828Z,10.55
2022-10-01T08:35:47.856Z,9.80
2022-10-01T08:38:19.719Z,11.00
2022-10-01T08:40:51.193Z,10.32
2022-10-01T08:43:31.932Z,8.32
2022-10-01T08:46:04.644Z,10.30
2022-10-01T08:48:45.157Z,9.88
2022-10-01T08:51:21.713Z,8.10
2022-10-01T08:53:56.383Z,8.10
2022-10-01T08:56:32.353Z,10.88
2022-10-01T08:59:05.526Z,7.65
2022-10-01T09:01:35.391Z,8.82
2022-10-01T09:04:06.303Z,7.47
2022-10-01T09:06:35.103Z,6.68
2022-10-01T09:09:25.425Z,7.28
2022-10-01T09:12:05.906Z,6.50
2022-10-01T09:14:50.428Z,5.68
2022-10-01T09:17:38.980Z,8.75
2022-10-01T09:20:18.030Z,4.68
2022-10-01T09:22:57.440Z,4.30
2022-10-01T09:25:28.551Z,3.90
2022-10-01T09:28:03.368Z,3.67
2022-10-01T09:30:33.317Z,4.57
2022-10-01T09:33:11.289Z,4.35
2022-10-01T09:35:45.355Z,4.28
2022-10-01T09:38:21.776Z,5.90
2022-10-01T09:40:54.886Z,2.58
2022-10-01T09:43:25.649Z,3.28
2022-10-01T09:45:54.271Z,4.22
2022-10-01T09:48:32.111Z,3.35
2022-10-01T09:51:08.679Z,3.03
2022-10-01T09:53:42.867Z,2.60
2022-10-01T09:56:20.081Z,4.55
2022-10-01T09:58:53.447Z,3.15
2022-10-01T10:01:27.839Z,2.40
2022-10-01T10:03:58.682Z,3.65
2022-10-01T10:06:29.506Z,5.32
2022-10-01T10:09:00.395Z,3.38
2022-10-01T10:11:32.977Z,2.42
2022-10-01T10:14:03.776Z,6.22
2022-10-01T10:16:36.094Z,2.65
2022-10-01T10:19:10.510Z,2.53
2022-10-01T10:21:39.206Z,3.50
2022-10-01T10:24:23.525Z,2.60
2022-10-01T10:26:58.503Z,3.13
2022-10-01T10:29:32.364Z,2.88
2022-10-01T10:32:05.266Z,2.40
2022-10-01T10:34:38.866Z,2.72
2022-10-01T10:37:14.956Z,2.95
2022-10-01T10:39:50.582Z,3.63
2022-10-01T10:42:22.578Z,2.65
2022-10-01T10:44:54.128Z,3.28
2022-10-01T10:47:24.575Z,3.00
2022-10-01T10:49:58.481Z,2.75
2022-10-01T10:52:30.269Z,3.00
2022-10-01T10:55:01.327Z,3.00
2022-10-01T10:57:33.588Z,3.42
2022-10-01T11:00:07.553Z,2.63
2022-10-01T11:02:36.321Z,2.58
2022-10-01T11:05:18.199Z,2.40
2022-10-01T11:07:49.377Z,3.00
2022-10-01T11:10:36.389Z,3.88
2022-10-01T11:13:23.087Z,3.58
2022-10-01T11:16:06.355Z,3.50
2022-10-01T11:18:55.988Z,3.47
2022-10-01T11:21:41.804Z,2.55
2022-10-01T11:24:25.583Z,2.58
2022-10-01T11:27:00.276Z,2.55
2022-10-01T11:29:42.287Z,3.22
2022-10-01T11:32:21.823Z,2.92
2022-10-01T11:35:26.201Z,2.20
2022-10-01T11:38:09.731Z,2.88
2022-10-01T11:40:43.005Z,3.53
2022-10-01T11:43:22.674Z,2.72
2022-10-01T11:45:57.394Z,2.95
2022-10-01T11:48:30.706Z,3.47
2022-10-01T11:51:03.288Z,4.63
2022-10-01T11:53:40.501Z,3.78
2022-10-01T11:56:32.921Z,4.30
2022-10-01T11:59:07.368Z,3.30
2022-10-01T12:01:44.002Z,3.05
2022-10-01T12:04:27.437Z,3.88
2022-10-01T12:07:04.469Z,3.95
2022-10-01T12:09:40.253Z,2.92
2022-10-01T12:12:14.779Z,2.72
2022-10-01T12:14:51.056Z,3.53
2022-10-01T12:17:27.829Z,3.22
2022-10-01T12:19:59.908Z,3.08
2022-10-01T12:22:34.161Z,6.40
2022-10-01T12:25:02.853Z,3.40
2022-10-01T12:27:44.760Z,4.85
2022-10-01T12:30:18.008Z,4.60
2022-10-01T12:33:12.050Z,3.58
2022-10-01T12:35:53.144Z,4.45
2022-10-01T12:38:36.404Z,3.53
2022-10-01T12:41:13.797Z,3.25
2022-10-01T12:44:01.312Z,3.80
2022-10-01T12:46:41.580Z,3.50
2022-10-01T12:49:22.478Z,3.20
2022-10-01T12:52:00.776Z,4.70
2022-10-01T12:54:42.363Z,4.78
2022-10-01T12:57:25.565Z,3.42
2022-10-01T13:00:05.587Z,4.55
2022-10-01T13:03:01.120Z,3.28
2022-10-01T13:05:37.248Z,3.08
2022-10-01T13:08:26.108Z,3.45
2022-10-01T13:11:05.441Z,3.45
2022-10-01T13:13:36.112Z,4.00
2022-10-01T13:16:12.397Z,3.00
2022-10-01T13:18:52.497Z,3.15
2022-10-01T13:21:33.683Z,2.88
2022-10-01T13:24:09.837Z,2.55
2022-10-01T13:26:46.954Z,5.90
2022-10-01T13:29:29.880Z,8.32
2022-10-01T13:32:00.339Z,4.35
2022-10-01T13:34:37.771Z,5.28
2022-10-01T13:37:17.672Z,4.60
2022-10-01T13:39:47.274Z,2.83
2022-10-01T13:42:24.345Z,6.00
2022-10-01T13:44:55.644Z,3.72
2022-10-01T13:47:26.778Z,3.70
2022-10-01T13:49:58.017Z,3.42
2022-10-01T13:52:50.320Z,2.40
2022-10-01T13:55:29.005Z,3.28
2022-10-01T13:58:04.865Z,3.05
2022-10-01T14:00:34.848Z,2.08
2022-10-01T14:03:07.644Z,4.32
2022-10-01T14:05:39.448Z,4.05
2022-10-01T14:08:17.879Z,2.40
2022-10-01T14:11:16.708Z,2.58
2022-10-01T14:14:05.824Z,3.08
2022-10-01T14:16:39.205Z,2.85
2022-10-01T14:19:08.738Z,2.80
2022-10-01T14:21:49.888Z,3.08
2022-10-01T14:24:30.125Z,4.80
2022-10-01T14:27:06.403Z,5.00
2022-10-01T14:29:47.553Z,6.38
2022-10-01T14:32:30.165Z,2.92
2022-10-01T14:35:19.262Z,4.35
2022-10-01T14:37:48.511Z,3.80
2022-10-01T14:40:21.096Z,11.73
2022-10-01T14:43:00.664Z,3.53
2022-10-01T14:45:30.274Z,3.45
2022-10-01T14:48:03.399Z,4.78
2022-10-01T14:50:35.109Z,9.23
2022-10-01T14:53:04.335Z,4.72
2022-10-01T14:55:36.147Z,3.10
2022-10-01T14:58:06.093Z,3.50
2022-10-01T15:00:35.529Z,2.13
2022-10-01T15:03:13.008Z,2.03
2022-10-01T15:05:41.592Z,2.50
2022-10-01T15:08:13.604Z,2.72
2022-10-01T15:10:48.919Z,3.15
2022-10-01T15:13:25.394Z,2.13
2022-10-01T15:15:55.438Z,3.85
2022-10-01T15:18:25.769Z,3.42
2022-10-01T15:20:56.947Z,3.10
2022-10-01T15:23:27.796Z,2.58
2022-10-01T15:26:01.216Z,1.42
2022-10-01T15:28:33.195Z,1.48
2022-10-01T15:31:03.438Z,1.83
2022-10-01T15:33:34.414Z,2.85
2022-10-01T15:36:05.501Z,2.33
2022-10-01T15:38:35.211Z,1.73
2022-10-01T15:41:30.059Z,2.60
2022-10-01T15:43:59.673Z,2.33
2022-10-01T15:46:32.986Z,1.33
2022-10-01T15:49:26.309Z,2.58
2022-10-01T15:52:16.567Z,1.38
2022-10-01T15:54:47.870Z,2.38
2022-10-01T15:57:20.833Z,1.50
2022-10-01T15:59:52.835Z,1.15
2022-10-01T16:02:26.061Z,1.30
2022-10-01T16:04:56.589Z,1.77
2022-10-01T16:07:29.393Z,1.55
2022-10-01T16:10:00.262Z,2.70
2022-10-01T16:12:30.621Z,2.83
2022-10-01T16:15:00.940Z,5.43
2022-10-01T16:17:34.549Z,2.88
2022-10-01T16:20:35.529Z,1.75
2022-10-01T16:23:36.939Z,1.40
2022-10-01T16:26:07.981Z,2.42
2022-10-01T16:28:37.920Z,1.80
2022-10-01T16:31:07.206Z,1.75
2022-10-01T16:33:35.648Z,2.47
2022-10-01T16:36:12.681Z,5.05
2022-10-01T16:38:41.085Z,2.55
2022-10-01T16:41:11.088Z,4.45
2022-10-01T16:43:41.297Z,2.55
2022-10-01T16:46:09.727Z,2.53
2022-10-01T16:48:38.821Z,3.92
2022-10-01T16:51:07.408Z,2.78
2022-10-01T16:53:36.956Z,4.75
2022-10-01T16:56:05.357Z,3.78
2022-10-01T16:58:34.261Z,3.70
2022-10-01T17:01:07.755Z,3.13
2022-10-01T17:03:37.390Z,2.08
2022-10-01T17:06:06.172Z,1.90
2022-10-01T17:08:35.042Z,5.88
2022-10-01T17:11:04.012Z,1.48
2022-10-01T17:13:34.398Z,3.88
2022-10-01T17:16:05.901Z,3.72
2022-10-01T17:18:34.739Z,6.40
2022-10-01T17:21:03.773Z,3.30
2022-10-01T17:23:35.011Z,3.97
2022-10-01T17:26:06.419Z,2.33
2022-10-01T17:28:34.938Z,2.90
2022-10-01T17:31:08.034Z,3.20
2022-10-01T17:33:36.548Z,1.92
2022-10-01T17:36:08.374Z,2.10
2022-10-01T17:38:36.934Z,2.13
2022-10-01T17:41:06.328Z,2.75
2022-10-01T17:43:36.795Z,1.70
2022-10-01T17:46:07.645Z,2.13
2022-10-01T17:48:36.524Z,3.10
2022-10-01T17:51:07.865Z,2.15
2022-10-01T17:53:42.458Z,2.03
2022-10-01T17:56:15.979Z,1.45
2022-10-01T17:58:46.470Z,1.80
2022-10-01T18:01:20.191Z,1.63
2022-10-01T18:03:49.163Z,4.22
2022-10-01T18:06:17.524Z,2.55
2022-10-01T18:08:55.974Z,3.53
2022-10-01T18:11:26.197Z,2.50
2022-10-01T18:13:55.402Z,3.63
2022-10-01T18:16:25.804Z,1.45
2022-10-01T18:21:48.522Z,1.30
2022-10-01T18:24:17.227Z,1.95
2022-10-01T18:26:47.151Z,1.05
2022-10-01T18:29:19.625Z,2.00
2022-10-01T18:31:52.824Z,4.13
2022-10-01T18:34:28.103Z,1.80
2022-10-01T18:36:59.892Z,0.93
2022-10-01T18:39:35.138Z,0.80
2022-10-01T18:42:13.008Z,1.30
2022-10-01T18:44:41.904Z,1.10
2022-10-01T18:47:21.755Z,1.52
2022-10-01T18:50:16.746Z,0.60
2022-10-01T18:53:01.514Z,0.93
2022-10-01T18:55:47.031Z,1.08
2022-10-01T18:58:30.450Z,0.75
2022-10-01T19:01:05.456Z,1.00
2022-10-01T19:04:00.535Z,1.88
2022-10-01T19:06:50.883Z,2.20
2022-10-01T19:09:42.881Z,1.33
2022-10-01T19:12:26.926Z,0.98
2022-10-01T19:15:02.032Z,1.55
2022-10-01T19:17:50.140Z,2.13
2022-10-01T19:20:34.971Z,2.42
2022-10-01T19:23:18.076Z,1.70
2022-10-01T19:25:52.256Z,6.38
2022-10-01T19:28:39.811Z,34.75
2022-10-01T19:31:16.925Z,13.20
2022-10-01T19:33:49.963Z,12.13
2022-10-01T19:36:26.371Z,9.85
2022-10-01T19:39:01.712Z,7.00
2022-10-01T19:41:39.084Z,4.00
2022-10-01T19:44:14.196Z,1.73
2022-10-01T19:46:45.540Z,2.05
2022-10-01T19:49:20.533Z,0.50
2022-10-01T19:51:58.133Z,1.00
2022-10-01T19:54:31.934Z,1.60
2022-10-01T19:57:05.939Z,0.80
2022-10-01T19:59:34.412Z,1.73
2022-10-01T20:02:15.622Z,2.50
2022-10-01T20:04:52.267Z,2.03
2022-10-01T20:07:28.786Z,2.42
2022-10-01T20:10:05.822Z,2.80
2022-10-01T20:12:47.862Z,1.50
2022-10-01T20:15:26.949Z,2.30
2022-10-01T20:18:13.307Z,1.73
2022-10-01T20:20:49.387Z,4.82
2022-10-01T20:23:38.556Z,1.45
2022-10-01T20:26:16.696Z,3.15
2022-10-01T20:28:54.819Z,2.47
2022-10-01T20:31:29.123Z,2.85
2022-10-01T20:34:07.904Z,1.45
2022-10-01T20:36:43.067Z,1.75
2022-10-01T20:39:18.992Z,1.40
2022-10-01T20:41:53.359Z,1.70
2022-10-01T20:44:26.700Z,1.45
2022-10-01T20:47:00.803Z,1.60
2022-10-01T20:49:35.471Z,2.15
2022-10-01T20:52:12.114Z,0.82
2022-10-01T20:54:46.722Z,1.17
2022-10-01T20:57:22.156Z,1.20
2022-10-01T20:59:54.611Z,1.75
2022-10-01T21:02:35.059Z,1.65
2022-10-01T21:05:08.998Z,1.50
2022-10-01T21:07:43.218Z,1.15
2022-10-01T21:10:24.511Z,1.95
2022-10-01T21:13:00.573Z,1.60
2022-10-01T21:15:37.303Z,1.70
2022-10-01T21:18:12.796Z,0.60
2022-10-01T21:21:01.701Z,1.25
2022-10-01T21:23:42.625Z,2.42
2022-10-01T21:26:24.715Z,1.60
2022-10-01T21:29:15.779Z,1.30
2022-10-01T21:31:57.404Z,2.05
2022-10-01T21:34:35.167Z,1.50
2022-10-01T21:37:07.596Z,1.80
2022-10-01T21:39:46.686Z,2.42
2022-10-01T21:42:20.823Z,2.35
2022-10-01T21:45:17.219Z,1.45
2022-10-01T21:48:01.334Z,1.70
2022-10-01T21:50:42.087Z,1.85
2022-10-01T21:53:29.018Z,1.73
2022-10-01T21:56:13.913Z,1.85
2022-10-01T21:58:54.456Z,1.48
2022-10-01T22:01:32.887Z,1.17
2022-10-01T22:04:07.463Z,1.95
2022-10-01T22:06:45.417Z,2.72
2022-10-01T22:09:20.068Z,1.52
2022-10-01T22:11:52.957Z,4.28
2022-10-01T22:14:23.554Z,2.42
2022-10-01T22:16:55.444Z,1.58
2022-10-01T22:19:29.189Z,1.45
2022-10-01T22:22:04.796Z,1.42
2022-10-01T22:24:40.687Z,2.45
2022-10-01T22:27:15.140Z,1.25
2022-10-01T22:29:52.046Z,2.97
2022-10-01T22:32:25.530Z,2.25
2022-10-01T22:34:58.907Z,4.90
2022-10-01T22:37:35.431Z,3.15
2022-10-01T22:40:11.033Z,3.90
2022-10-01T22:42:46.293Z,2.85
2022-10-01T22:45:19.322Z,2.95
2022-10-01T22:48:04.380Z,5.75
2022-10-01T22:50:43.438Z,3.58
2022-10-01T22:53:39.365Z,2.38
2022-10-01T22:56:08.148Z,3.63
2022-10-01T22:59:00.960Z,2.17
2022-10-01T23:01:43.329Z,4.90
2022-10-01T23:04:29.724Z,3.00
2022-10-01T23:07:08.577Z,3.28
2022-10-01T23:09:45.885Z,5.55
2022-10-01T23:12:23.336Z,5.55
2022-10-01T23:15:07.662Z,6.78
2022-10-01T23:17:45.612Z,6.00
2022-10-01T23:20:23.699Z,4.20
2022-10-01T23:23:06.286Z,6.35
2022-10-01T23:25:48.368Z,4.00
2022-10-01T23:28:30.752Z,6.45
2022-10-01T23:31:08.032Z,4.32
2022-10-01T23:33:55.092Z,12.00
2022-10-01T23:36:34.525Z,5.47
2022-10-01T23:39:26.521Z,4.82
2022-10-01T23:42:00.751Z,5.80
2022-10-01T23:44:37.074Z,5.38
2022-10-01T23:47:11.639Z,4.63
2022-10-01T23:49:54.167Z,5.15
2022-10-01T23:52:32.111Z,3.05
2022-10-01T23:55:19.469Z,4.78
2022-10-01T23:57:52.903Z,3.47
